sensor_id;sensor_type;location;lat;lon;timestamp;pressure;altitude;pressure_sealevel;temperature;humidity
61528;BME280;47395;42.032;-8.634;2023-03-04T00:01:13;101436.47;;;7.09;68.30
61528;BME280;47395;42.032;-8.634;2023-03-04T00:03:14;101432.94;;;7.10;67.55
61528;BME280;47395;42.032;-8.634;2023-03-04T00:05:15;101440.78;;;7.10;67.38
61528;BME280;47395;42.032;-8.634;2023-03-04T00:07:16;101438.41;;;6.99;67.63
61528;BME280;47395;42.032;-8.634;2023-03-04T00:09:18;101436.75;;;6.95;67.71
61528;BME280;47395;42.032;-8.634;2023-03-04T00:11:19;101431.63;;;6.90;67.97
61528;BME280;47395;42.032;-8.634;2023-03-04T00:13:20;101426.41;;;6.90;68.37
61528;BME280;47395;42.032;-8.634;2023-03-04T00:15:21;101424.50;;;6.97;67.95
61528;BME280;47395;42.032;-8.634;2023-03-04T00:17:22;101426.75;;;7.12;68.88
61528;BME280;47395;42.032;-8.634;2023-03-04T00:19:23;101424.09;;;7.14;67.85
61528;BME280;47395;42.032;-8.634;2023-03-04T00:21:24;101431.81;;;7.20;66.46
61528;BME280;47395;42.032;-8.634;2023-03-04T00:23:25;101435.78;;;6.99;67.05
61528;BME280;47395;42.032;-8.634;2023-03-04T00:25:25;101431.72;;;6.85;67.26
61528;BME280;47395;42.032;-8.634;2023-03-04T00:27:26;101430.03;;;6.83;67.54
61528;BME280;47395;42.032;-8.634;2023-03-04T00:29:27;101436.00;;;6.89;67.69
61528;BME280;47395;42.032;-8.634;2023-03-04T00:31:28;101445.63;;;6.87;68.41
61528;BME280;47395;42.032;-8.634;2023-03-04T00:33:29;101435.69;;;7.03;67.54
61528;BME280;47395;42.032;-8.634;2023-03-04T00:35:29;101434.97;;;6.97;67.01
61528;BME280;47395;42.032;-8.634;2023-03-04T00:37:30;101439.16;;;7.04;66.84
61528;BME280;47395;42.032;-8.634;2023-03-04T00:39:31;101434.13;;;6.95;66.94
61528;BME280;47395;42.032;-8.634;2023-03-04T00:41:32;101433.22;;;6.96;67.03
61528;BME280;47395;42.032;-8.634;2023-03-04T00:43:33;101430.63;;;6.94;67.31
61528;BME280;47395;42.032;-8.634;2023-03-04T00:45:33;101431.50;;;6.96;67.25
61528;BME280;47395;42.032;-8.634;2023-03-04T00:47:34;101430.84;;;6.85;67.49
61528;BME280;47395;42.032;-8.634;2023-03-04T00:49:35;101433.41;;;6.88;67.40
61528;BME280;47395;42.032;-8.634;2023-03-04T00:51:37;101429.13;;;6.84;67.50
61528;BME280;47395;42.032;-8.634;2023-03-04T00:53:40;101432.66;;;6.83;67.65
61528;BME280;47395;42.032;-8.634;2023-03-04T00:55:40;101434.50;;;6.79;67.79
61528;BME280;47395;42.032;-8.634;2023-03-04T00:57:41;101434.50;;;6.79;67.87
61528;BME280;47395;42.032;-8.634;2023-03-04T00:59:42;101439.63;;;6.82;67.64
61528;BME280;47395;42.032;-8.634;2023-03-04T01:01:43;101440.63;;;6.76;67.79
61528;BME280;47395;42.032;-8.634;2023-03-04T01:03:44;101442.81;;;6.56;67.74
61528;BME280;47395;42.032;-8.634;2023-03-04T01:05:45;101444.44;;;6.16;68.63
61528;BME280;47395;42.032;-8.634;2023-03-04T01:07:46;101442.13;;;5.97;69.29
61528;BME280;47395;42.032;-8.634;2023-03-04T01:09:46;101441.16;;;6.03;69.75
61528;BME280;47395;42.032;-8.634;2023-03-04T01:11:47;101446.53;;;5.95;70.11
61528;BME280;47395;42.032;-8.634;2023-03-04T01:13:48;101427.25;;;6.00;70.27
61528;BME280;47395;42.032;-8.634;2023-03-04T01:15:48;101430.59;;;6.10;70.02
61528;BME280;47395;42.032;-8.634;2023-03-04T01:17:49;101432.19;;;6.19;70.13
61528;BME280;47395;42.032;-8.634;2023-03-04T01:19:50;101424.22;;;6.24;69.88
61528;BME280;47395;42.032;-8.634;2023-03-04T01:21:51;101420.53;;;6.34;69.75
61528;BME280;47395;42.032;-8.634;2023-03-04T01:23:52;101420.44;;;6.39;69.31
61528;BME280;47395;42.032;-8.634;2023-03-04T01:25:52;101427.13;;;6.54;70.08
61528;BME280;47395;42.032;-8.634;2023-03-04T01:27:53;101422.38;;;6.73;69.30
61528;BME280;47395;42.032;-8.634;2023-03-04T01:29:54;101429.09;;;6.85;68.08
61528;BME280;47395;42.032;-8.634;2023-03-04T01:31:56;101427.28;;;6.87;68.05
61528;BME280;47395;42.032;-8.634;2023-03-04T01:33:56;101435.94;;;6.92;67.68
61528;BME280;47395;42.032;-8.634;2023-03-04T01:35:57;101428.88;;;6.96;67.63
61528;BME280;47395;42.032;-8.634;2023-03-04T01:37:59;101432.28;;;7.00;67.38
61528;BME280;47395;42.032;-8.634;2023-03-04T01:40:00;101428.00;;;6.96;67.68
61528;BME280;47395;42.032;-8.634;2023-03-04T01:42:01;101432.38;;;6.97;67.45
61528;BME280;47395;42.032;-8.634;2023-03-04T01:44:01;101436.69;;;6.98;67.57
61528;BME280;47395;42.032;-8.634;2023-03-04T01:46:03;101436.59;;;7.01;67.60
61528;BME280;47395;42.032;-8.634;2023-03-04T01:48:04;101425.38;;;6.96;67.68
61528;BME280;47395;42.032;-8.634;2023-03-04T01:50:06;101429.63;;;7.01;68.09
61528;BME280;47395;42.032;-8.634;2023-03-04T01:52:12;101425.38;;;6.96;67.95
61528;BME280;47395;42.032;-8.634;2023-03-04T01:54:13;101425.13;;;7.07;67.81
61528;BME280;47395;42.032;-8.634;2023-03-04T01:56:19;101432.19;;;7.04;67.73
61528;BME280;47395;42.032;-8.634;2023-03-04T01:58:28;101422.84;;;6.92;68.40
61528;BME280;47395;42.032;-8.634;2023-03-04T02:00:32;101417.44;;;6.99;67.93
61528;BME280;47395;42.032;-8.634;2023-03-04T02:02:34;101418.16;;;7.07;67.77
61528;BME280;47395;42.032;-8.634;2023-03-04T02:04:35;101417.06;;;7.16;68.80
61528;BME280;47395;42.032;-8.634;2023-03-04T02:06:38;101414.91;;;7.34;67.60
61528;BME280;47395;42.032;-8.634;2023-03-04T02:08:40;101418.50;;;7.29;67.19
61528;BME280;47395;42.032;-8.634;2023-03-04T02:10:41;101416.50;;;7.03;66.83
61528;BME280;47395;42.032;-8.634;2023-03-04T02:12:44;101410.63;;;6.91;67.35
61528;BME280;47395;42.032;-8.634;2023-03-04T02:14:45;101417.13;;;6.75;67.93
61528;BME280;47395;42.032;-8.634;2023-03-04T02:16:47;101415.00;;;6.91;69.19
61528;BME280;47395;42.032;-8.634;2023-03-04T02:18:48;101404.09;;;7.11;68.55
61528;BME280;47395;42.032;-8.634;2023-03-04T02:21:22;101394.78;;;6.98;67.30
61528;BME280;47395;42.032;-8.634;2023-03-04T02:26:15;101387.81;;;6.57;68.57
61528;BME280;47395;42.032;-8.634;2023-03-04T02:28:18;101382.78;;;6.48;69.25
61528;BME280;47395;42.032;-8.634;2023-03-04T02:30:23;101381.25;;;6.36;69.91
61528;BME280;47395;42.032;-8.634;2023-03-04T02:32:25;101378.50;;;6.44;70.14
61528;BME280;47395;42.032;-8.634;2023-03-04T02:34:34;101370.00;;;6.32;70.27
61528;BME280;47395;42.032;-8.634;2023-03-04T02:36:36;101367.31;;;6.35;70.55
61528;BME280;47395;42.032;-8.634;2023-03-04T02:38:37;101373.47;;;6.33;70.19
61528;BME280;47395;42.032;-8.634;2023-03-04T02:40:38;101367.97;;;6.45;70.69
61528;BME280;47395;42.032;-8.634;2023-03-04T02:42:43;101374.84;;;6.51;70.60
61528;BME280;47395;42.032;-8.634;2023-03-04T02:44:45;101368.13;;;6.37;70.79
61528;BME280;47395;42.032;-8.634;2023-03-04T02:46:50;101378.59;;;6.37;70.99
61528;BME280;47395;42.032;-8.634;2023-03-04T02:48:51;101381.97;;;6.43;71.14
61528;BME280;47395;42.032;-8.634;2023-03-04T02:50:52;101378.63;;;6.36;71.32
61528;BME280;47395;42.032;-8.634;2023-03-04T02:52:54;101380.09;;;6.49;70.95
61528;BME280;47395;42.032;-8.634;2023-03-04T02:54:54;101377.00;;;6.71;71.13
61528;BME280;47395;42.032;-8.634;2023-03-04T02:56:58;101378.47;;;6.85;70.00
61528;BME280;47395;42.032;-8.634;2023-03-04T02:59:01;101373.72;;;7.01;70.26
61528;BME280;47395;42.032;-8.634;2023-03-04T03:01:04;101383.75;;;7.21;69.94
61528;BME280;47395;42.032;-8.634;2023-03-04T03:03:05;101379.31;;;7.25;68.64
61528;BME280;47395;42.032;-8.634;2023-03-04T03:05:09;101378.16;;;7.35;67.78
61528;BME280;47395;42.032;-8.634;2023-03-04T03:07:11;101381.69;;;7.34;67.48
61528;BME280;47395;42.032;-8.634;2023-03-04T03:09:12;101377.44;;;7.30;67.61
61528;BME280;47395;42.032;-8.634;2023-03-04T03:11:13;101372.47;;;7.17;67.67
61528;BME280;47395;42.032;-8.634;2023-03-04T03:13:14;101370.09;;;7.07;68.59
61528;BME280;47395;42.032;-8.634;2023-03-04T03:15:15;101374.25;;;7.17;68.43
61528;BME280;47395;42.032;-8.634;2023-03-04T03:17:16;101376.50;;;7.31;67.81
61528;BME280;47395;42.032;-8.634;2023-03-04T03:19:17;101384.81;;;7.14;68.40
61528;BME280;47395;42.032;-8.634;2023-03-04T03:21:18;101382.91;;;7.21;67.25
61528;BME280;47395;42.032;-8.634;2023-03-04T03:23:19;101384.84;;;7.12;66.92
61528;BME280;47395;42.032;-8.634;2023-03-04T03:25:20;101387.16;;;6.87;67.51
61528;BME280;47395;42.032;-8.634;2023-03-04T03:27:21;101381.66;;;6.60;68.28
61528;BME280;47395;42.032;-8.634;2023-03-04T03:29:23;101390.63;;;6.48;69.15
61528;BME280;47395;42.032;-8.634;2023-03-04T03:31:27;101389.00;;;6.42;69.25
61528;BME280;47395;42.032;-8.634;2023-03-04T03:33:27;101388.22;;;6.37;69.22
61528;BME280;47395;42.032;-8.634;2023-03-04T03:35:28;101385.63;;;6.35;69.33
61528;BME280;47395;42.032;-8.634;2023-03-04T03:37:30;101392.75;;;6.29;69.01
61528;BME280;47395;42.032;-8.634;2023-03-04T03:39:30;101384.97;;;6.24;69.38
61528;BME280;47395;42.032;-8.634;2023-03-04T03:41:31;101387.72;;;6.18;69.08
61528;BME280;47395;42.032;-8.634;2023-03-04T03:43:32;101391.41;;;6.07;69.27
61528;BME280;47395;42.032;-8.634;2023-03-04T03:45:33;101389.72;;;6.05;69.09
61528;BME280;47395;42.032;-8.634;2023-03-04T03:47:34;101393.22;;;6.02;69.23
61528;BME280;47395;42.032;-8.634;2023-03-04T03:49:35;101389.81;;;5.98;69.17
61528;BME280;47395;42.032;-8.634;2023-03-04T03:51:35;101387.28;;;5.92;68.90
61528;BME280;47395;42.032;-8.634;2023-03-04T03:53:36;101393.53;;;5.85;69.19
61528;BME280;47395;42.032;-8.634;2023-03-04T03:55:37;101391.09;;;5.75;69.42
61528;BME280;47395;42.032;-8.634;2023-03-04T03:57:38;101393.78;;;5.69;69.28
61528;BME280;47395;42.032;-8.634;2023-03-04T03:59:39;101389.50;;;5.67;69.33
61528;BME280;47395;42.032;-8.634;2023-03-04T04:01:40;101381.78;;;5.59;69.81
61528;BME280;47395;42.032;-8.634;2023-03-04T04:03:40;101382.69;;;5.58;69.56
61528;BME280;47395;42.032;-8.634;2023-03-04T04:05:41;101387.06;;;5.54;69.78
61528;BME280;47395;42.032;-8.634;2023-03-04T04:07:42;101388.91;;;5.51;70.05
61528;BME280;47395;42.032;-8.634;2023-03-04T04:09:43;101387.25;;;5.45;70.36
61528;BME280;47395;42.032;-8.634;2023-03-04T04:11:44;101392.59;;;5.37;70.68
61528;BME280;47395;42.032;-8.634;2023-03-04T04:13:44;101391.78;;;5.35;71.02
61528;BME280;47395;42.032;-8.634;2023-03-04T04:15:45;101392.72;;;5.29;71.83
61528;BME280;47395;42.032;-8.634;2023-03-04T04:17:46;101394.44;;;5.30;72.58
61528;BME280;47395;42.032;-8.634;2023-03-04T04:19:47;101393.78;;;5.17;72.84
61528;BME280;47395;42.032;-8.634;2023-03-04T04:21:47;101391.06;;;5.25;73.21
61528;BME280;47395;42.032;-8.634;2023-03-04T04:23:48;101400.47;;;5.35;73.24
61528;BME280;47395;42.032;-8.634;2023-03-04T04:25:49;101385.28;;;5.59;73.02
61528;BME280;47395;42.032;-8.634;2023-03-04T04:27:50;101383.28;;;5.74;72.73
61528;BME280;47395;42.032;-8.634;2023-03-04T04:29:50;101396.97;;;5.87;72.07
61528;BME280;47395;42.032;-8.634;2023-03-04T04:31:51;101391.53;;;5.98;71.38
61528;BME280;47395;42.032;-8.634;2023-03-04T04:33:52;101397.72;;;5.94;71.66
61528;BME280;47395;42.032;-8.634;2023-03-04T04:35:52;101400.28;;;5.97;71.37
61528;BME280;47395;42.032;-8.634;2023-03-04T04:37:53;101396.06;;;5.90;71.69
61528;BME280;47395;42.032;-8.634;2023-03-04T04:39:54;101402.97;;;5.92;71.93
61528;BME280;47395;42.032;-8.634;2023-03-04T04:41:55;101401.94;;;6.04;71.30
61528;BME280;47395;42.032;-8.634;2023-03-04T04:43:55;101406.16;;;6.10;71.15
61528;BME280;47395;42.032;-8.634;2023-03-04T04:45:58;101393.03;;;6.13;71.67
61528;BME280;47395;42.032;-8.634;2023-03-04T04:47:59;101402.47;;;6.23;70.74
61528;BME280;47395;42.032;-8.634;2023-03-04T04:49:59;101397.13;;;6.26;71.15
61528;BME280;47395;42.032;-8.634;2023-03-04T04:52:00;101398.72;;;6.35;70.27
61528;BME280;47395;42.032;-8.634;2023-03-04T04:54:02;101394.34;;;6.34;70.44
61528;BME280;47395;42.032;-8.634;2023-03-04T04:56:11;101394.31;;;6.37;70.61
61528;BME280;47395;42.032;-8.634;2023-03-04T04:58:12;101392.19;;;6.55;69.33
61528;BME280;47395;42.032;-8.634;2023-03-04T05:00:13;101393.81;;;6.62;68.99
61528;BME280;47395;42.032;-8.634;2023-03-04T05:04:38;101402.47;;;6.64;69.06
61528;BME280;47395;42.032;-8.634;2023-03-04T05:06:38;101398.16;;;6.62;68.69
61528;BME280;47395;42.032;-8.634;2023-03-04T05:08:39;101398.84;;;6.72;68.56
61528;BME280;47395;42.032;-8.634;2023-03-04T05:10:40;101398.84;;;6.72;68.96
61528;BME280;47395;42.032;-8.634;2023-03-04T05:12:42;101408.44;;;6.71;69.17
61528;BME280;47395;42.032;-8.634;2023-03-04T05:14:43;101402.91;;;6.85;67.38
61528;BME280;47395;42.032;-8.634;2023-03-04T05:16:44;101412.59;;;6.82;67.98
61528;BME280;47395;42.032;-8.634;2023-03-04T05:18:45;101407.19;;;6.89;68.14
61528;BME280;47395;42.032;-8.634;2023-03-04T05:20:53;101404.66;;;6.85;67.58
61528;BME280;47395;42.032;-8.634;2023-03-04T05:22:54;101403.13;;;6.76;67.84
61528;BME280;47395;42.032;-8.634;2023-03-04T05:24:55;101401.47;;;6.72;67.77
61528;BME280;47395;42.032;-8.634;2023-03-04T05:26:56;101393.84;;;6.59;67.75
61528;BME280;47395;42.032;-8.634;2023-03-04T05:28:57;101399.81;;;6.66;68.71
61528;BME280;47395;42.032;-8.634;2023-03-04T05:30:58;101408.56;;;6.66;68.25
61528;BME280;47395;42.032;-8.634;2023-03-04T05:32:59;101403.88;;;6.81;68.02
61528;BME280;47395;42.032;-8.634;2023-03-04T05:35:00;101405.69;;;6.79;67.61
61528;BME280;47395;42.032;-8.634;2023-03-04T05:37:01;101401.47;;;6.72;67.69
61528;BME280;47395;42.032;-8.634;2023-03-04T05:39:01;101406.63;;;6.75;67.98
61528;BME280;47395;42.032;-8.634;2023-03-04T05:41:04;101412.88;;;6.69;68.02
61528;BME280;47395;42.032;-8.634;2023-03-04T05:43:07;101410.03;;;6.78;68.10
61528;BME280;47395;42.032;-8.634;2023-03-04T05:45:08;101410.56;;;6.95;67.74
61528;BME280;47395;42.032;-8.634;2023-03-04T05:47:09;101413.22;;;6.93;67.61
61528;BME280;47395;42.032;-8.634;2023-03-04T05:49:10;101419.00;;;7.08;67.58
61528;BME280;47395;42.032;-8.634;2023-03-04T05:51:10;101414.44;;;7.16;66.88
61528;BME280;47395;42.032;-8.634;2023-03-04T05:53:12;101416.19;;;7.17;66.65
61528;BME280;47395;42.032;-8.634;2023-03-04T05:55:13;101413.72;;;7.09;65.90
61528;BME280;47395;42.032;-8.634;2023-03-04T05:57:14;101413.81;;;7.06;67.38
61528;BME280;47395;42.032;-8.634;2023-03-04T05:59:15;101419.84;;;7.08;66.43
61528;BME280;47395;42.032;-8.634;2023-03-04T06:01:19;101421.94;;;7.31;66.41
61528;BME280;47395;42.032;-8.634;2023-03-04T06:03:23;101423.59;;;7.36;66.47
61528;BME280;47395;42.032;-8.634;2023-03-04T06:05:24;101419.38;;;7.28;65.68
61528;BME280;47395;42.032;-8.634;2023-03-04T06:07:25;101422.19;;;7.22;65.37
61528;BME280;47395;42.032;-8.634;2023-03-04T06:09:26;101424.03;;;7.17;65.08
61528;BME280;47395;42.032;-8.634;2023-03-04T06:11:27;101427.75;;;7.07;65.47
61528;BME280;47395;42.032;-8.634;2023-03-04T06:13:28;101424.44;;;6.98;66.47
61528;BME280;47395;42.032;-8.634;2023-03-04T06:15:28;101423.72;;;6.91;65.95
61528;BME280;47395;42.032;-8.634;2023-03-04T06:17:31;101427.19;;;6.94;66.27
61528;BME280;47395;42.032;-8.634;2023-03-04T06:19:32;101432.25;;;7.01;66.14
61528;BME280;47395;42.032;-8.634;2023-03-04T06:21:33;101429.69;;;6.98;66.45
61528;BME280;47395;42.032;-8.634;2023-03-04T06:23:34;101433.31;;;6.92;65.70
61528;BME280;47395;42.032;-8.634;2023-03-04T06:25:34;101440.75;;;6.72;65.78
61528;BME280;47395;42.032;-8.634;2023-03-04T06:27:35;101440.63;;;6.34;66.91
61528;BME280;47395;42.032;-8.634;2023-03-04T06:29:36;101446.16;;;6.17;67.45
61528;BME280;47395;42.032;-8.634;2023-03-04T06:31:37;101444.53;;;6.12;67.65
61528;BME280;47395;42.032;-8.634;2023-03-04T06:33:39;101450.94;;;5.93;68.16
61528;BME280;47395;42.032;-8.634;2023-03-04T06:35:39;101454.44;;;5.92;68.66
61528;BME280;47395;42.032;-8.634;2023-03-04T06:37:41;101453.66;;;5.86;68.45
61528;BME280;47395;42.032;-8.634;2023-03-04T06:39:42;101458.09;;;5.81;68.43
61528;BME280;47395;42.032;-8.634;2023-03-04T06:41:43;101456.72;;;5.58;68.90
61528;BME280;47395;42.032;-8.634;2023-03-04T06:43:44;101457.72;;;5.51;69.18
61528;BME280;47395;42.032;-8.634;2023-03-04T06:45:45;101457.78;;;5.45;69.70
61528;BME280;47395;42.032;-8.634;2023-03-04T06:47:46;101461.41;;;5.39;69.98
61528;BME280;47395;42.032;-8.634;2023-03-04T06:49:46;101466.63;;;5.39;69.83
61528;BME280;47395;42.032;-8.634;2023-03-04T06:51:47;101463.97;;;5.41;69.69
61528;BME280;47395;42.032;-8.634;2023-03-04T06:53:48;101460.56;;;5.35;69.79
61528;BME280;47395;42.032;-8.634;2023-03-04T06:55:49;101460.69;;;5.26;70.26
61528;BME280;47395;42.032;-8.634;2023-03-04T06:57:49;101452.97;;;5.18;70.48
61528;BME280;47395;42.032;-8.634;2023-03-04T06:59:50;101457.19;;;5.27;70.85
61528;BME280;47395;42.032;-8.634;2023-03-04T07:01:51;101457.91;;;5.39;71.59
61528;BME280;47395;42.032;-8.634;2023-03-04T07:03:52;101453.09;;;5.67;70.56
61528;BME280;47395;42.032;-8.634;2023-03-04T07:05:53;101451.84;;;5.90;70.68
61528;BME280;47395;42.032;-8.634;2023-03-04T07:07:54;101443.50;;;6.18;68.68
61528;BME280;47395;42.032;-8.634;2023-03-04T07:09:55;101447.81;;;6.22;68.67
61528;BME280;47395;42.032;-8.634;2023-03-04T07:11:56;101447.31;;;6.49;68.39
61528;BME280;47395;42.032;-8.634;2023-03-04T07:13:56;101442.78;;;6.57;68.16
61528;BME280;47395;42.032;-8.634;2023-03-04T07:15:58;101447.84;;;6.66;67.45
61528;BME280;47395;42.032;-8.634;2023-03-04T07:17:59;101450.94;;;6.86;67.40
61528;BME280;47395;42.032;-8.634;2023-03-04T07:20:00;101451.25;;;7.11;66.59
61528;BME280;47395;42.032;-8.634;2023-03-04T07:22:01;101451.78;;;7.26;66.13
61528;BME280;47395;42.032;-8.634;2023-03-04T07:24:02;101463.34;;;7.17;65.40
61528;BME280;47395;42.032;-8.634;2023-03-04T07:26:03;101461.59;;;7.16;65.45
61528;BME280;47395;42.032;-8.634;2023-03-04T07:28:04;101459.13;;;7.10;65.60
61528;BME280;47395;42.032;-8.634;2023-03-04T07:30:05;101459.22;;;7.05;64.79
61528;BME280;47395;42.032;-8.634;2023-03-04T07:32:07;101452.31;;;7.01;65.74
61528;BME280;47395;42.032;-8.634;2023-03-04T07:34:10;101457.38;;;7.10;65.07
61528;BME280;47395;42.032;-8.634;2023-03-04T07:36:12;101457.44;;;7.07;65.87
61528;BME280;47395;42.032;-8.634;2023-03-04T07:38:14;101456.81;;;7.35;64.97
61528;BME280;47395;42.032;-8.634;2023-03-04T07:40:15;101458.84;;;7.24;64.73
61528;BME280;47395;42.032;-8.634;2023-03-04T07:42:16;101458.91;;;7.21;64.03
61528;BME280;47395;42.032;-8.634;2023-03-04T07:44:25;101464.00;;;7.25;64.66
61528;BME280;47395;42.032;-8.634;2023-03-04T07:46:26;101462.31;;;6.83;64.72
61528;BME280;47395;42.032;-8.634;2023-03-04T07:48:27;101463.34;;;6.76;64.55
61528;BME280;47395;42.032;-8.634;2023-03-04T07:50:28;101468.78;;;6.66;65.30
61528;BME280;47395;42.032;-8.634;2023-03-04T07:52:28;101482.38;;;6.40;65.58
61528;BME280;47395;42.032;-8.634;2023-03-04T07:54:29;101484.84;;;6.48;65.56
61528;BME280;47395;42.032;-8.634;2023-03-04T07:56:31;101483.03;;;6.51;66.10
61528;BME280;47395;42.032;-8.634;2023-03-04T07:58:32;101483.75;;;7.78;63.05
61528;BME280;47395;42.032;-8.634;2023-03-04T08:00:33;101481.88;;;9.69;56.92
61528;BME280;47395;42.032;-8.634;2023-03-04T08:02:34;101483.47;;;10.77;53.10
61528;BME280;47395;42.032;-8.634;2023-03-04T08:04:35;101479.91;;;12.52;48.24
61528;BME280;47395;42.032;-8.634;2023-03-04T08:06:36;101476.75;;;13.21;45.87
61528;BME280;47395;42.032;-8.634;2023-03-04T08:08:40;101474.00;;;13.96;44.61
61528;BME280;47395;42.032;-8.634;2023-03-04T08:10:42;101466.09;;;14.64;43.01
61528;BME280;47395;42.032;-8.634;2023-03-04T08:12:43;101477.94;;;14.90;42.90
61528;BME280;47395;42.032;-8.634;2023-03-04T08:14:44;101480.59;;;14.90;42.42
61528;BME280;47395;42.032;-8.634;2023-03-04T08:16:45;101474.09;;;15.44;40.99
61528;BME280;47395;42.032;-8.634;2023-03-04T08:18:49;101473.22;;;15.74;39.99
61528;BME280;47395;42.032;-8.634;2023-03-04T08:20:51;101472.69;;;15.53;40.47
61528;BME280;47395;42.032;-8.634;2023-03-04T08:22:52;101472.75;;;15.98;39.89
61528;BME280;47395;42.032;-8.634;2023-03-04T08:24:53;101471.63;;;16.02;40.53
61528;BME280;47395;42.032;-8.634;2023-03-04T08:26:55;101466.78;;;16.82;38.37
61528;BME280;47395;42.032;-8.634;2023-03-04T08:28:56;101477.97;;;17.02;36.63
61528;BME280;47395;42.032;-8.634;2023-03-04T08:30:57;101474.84;;;17.37;36.63
61528;BME280;47395;42.032;-8.634;2023-03-04T08:32:58;101482.56;;;16.41;37.43
61528;BME280;47395;42.032;-8.634;2023-03-04T08:34:59;101485.72;;;16.77;37.20
61528;BME280;47395;42.032;-8.634;2023-03-04T08:37:01;101484.09;;;17.31;36.46
61528;BME280;47395;42.032;-8.634;2023-03-04T08:39:04;101485.38;;;18.20;34.58
61528;BME280;47395;42.032;-8.634;2023-03-04T08:41:05;101485.88;;;17.58;35.43
61528;BME280;47395;42.032;-8.634;2023-03-04T08:43:05;101477.34;;;17.53;35.86
61528;BME280;47395;42.032;-8.634;2023-03-04T08:45:08;101484.19;;;16.44;36.94
61528;BME280;47395;42.032;-8.634;2023-03-04T08:47:09;101480.72;;;17.00;36.95
61528;BME280;47395;42.032;-8.634;2023-03-04T08:49:10;101486.78;;;17.85;35.18
61528;BME280;47395;42.032;-8.634;2023-03-04T08:51:13;101482.81;;;18.18;34.51
61528;BME280;47395;42.032;-8.634;2023-03-04T08:53:16;101478.22;;;18.97;33.38
61528;BME280;47395;42.032;-8.634;2023-03-04T08:55:18;101481.78;;;19.82;32.50
61528;BME280;47395;42.032;-8.634;2023-03-04T08:57:19;101481.41;;;20.57;31.42
61528;BME280;47395;42.032;-8.634;2023-03-04T08:59:20;101488.38;;;20.48;30.66
61528;BME280;47395;42.032;-8.634;2023-03-04T09:01:21;101482.47;;;21.98;28.85
61528;BME280;47395;42.032;-8.634;2023-03-04T09:03:22;101473.81;;;22.16;28.27
61528;BME280;47395;42.032;-8.634;2023-03-04T09:05:23;101480.25;;;21.82;28.72
61528;BME280;47395;42.032;-8.634;2023-03-04T09:07:24;101477.16;;;21.87;28.86
61528;BME280;47395;42.032;-8.634;2023-03-04T09:09:25;101483.22;;;21.02;29.81
61528;BME280;47395;42.032;-8.634;2023-03-04T09:11:29;101489.06;;;21.07;29.32
61528;BME280;47395;42.032;-8.634;2023-03-04T09:13:30;101484.94;;;19.87;31.20
61528;BME280;47395;42.032;-8.634;2023-03-04T09:15:32;101477.50;;;20.84;30.56
61528;BME280;47395;42.032;-8.634;2023-03-04T09:17:35;101481.75;;;21.42;29.71
61528;BME280;47395;42.032;-8.634;2023-03-04T09:19:36;101492.09;;;21.80;29.10
61528;BME280;47395;42.032;-8.634;2023-03-04T09:21:37;101495.50;;;21.05;29.85
61528;BME280;47395;42.032;-8.634;2023-03-04T09:23:38;101484.81;;;22.75;28.14
61528;BME280;47395;42.032;-8.634;2023-03-04T09:25:39;101486.09;;;23.42;26.32
61528;BME280;47395;42.032;-8.634;2023-03-04T09:27:40;101490.41;;;22.31;27.15
61528;BME280;47395;42.032;-8.634;2023-03-04T09:29:41;101488.81;;;22.50;28.26
61528;BME280;47395;42.032;-8.634;2023-03-04T09:31:44;101485.78;;;23.65;26.68
61528;BME280;47395;42.032;-8.634;2023-03-04T09:33:45;101484.47;;;23.98;25.79
61528;BME280;47395;42.032;-8.634;2023-03-04T09:35:45;101481.75;;;24.18;25.27
61528;BME280;47395;42.032;-8.634;2023-03-04T09:37:48;101477.53;;;22.97;27.27
61528;BME280;47395;42.032;-8.634;2023-03-04T09:39:50;101484.09;;;23.83;26.75
61528;BME280;47395;42.032;-8.634;2023-03-04T09:41:53;101482.97;;;25.18;25.44
61528;BME280;47395;42.032;-8.634;2023-03-04T09:43:57;101487.22;;;26.02;24.36
61528;BME280;47395;42.032;-8.634;2023-03-04T09:46:01;101494.34;;;27.32;22.52
61528;BME280;47395;42.032;-8.634;2023-03-04T09:48:04;101490.94;;;27.97;21.53
61528;BME280;47395;42.032;-8.634;2023-03-04T09:50:08;101497.13;;;28.31;21.23
61528;BME280;47395;42.032;-8.634;2023-03-04T09:55:34;101491.78;;;27.31;22.16
61528;BME280;47395;42.032;-8.634;2023-03-04T09:57:50;101486.66;;;28.36;21.65
61528;BME280;47395;42.032;-8.634;2023-03-04T10:00:02;101482.94;;;26.52;22.50
61528;BME280;47395;42.032;-8.634;2023-03-04T10:02:29;101474.78;;;25.46;23.55
61528;BME280;47395;42.032;-8.634;2023-03-04T10:04:50;101478.03;;;26.21;23.06
61528;BME280;47395;42.032;-8.634;2023-03-04T10:06:52;101475.09;;;26.76;21.87
61528;BME280;47395;42.032;-8.634;2023-03-04T10:09:12;101482.03;;;24.53;24.50
61528;BME280;47395;42.032;-8.634;2023-03-04T10:11:24;101480.34;;;24.52;24.47
61528;BME280;47395;42.032;-8.634;2023-03-04T10:14:03;101474.66;;;25.48;23.45
61528;BME280;47395;42.032;-8.634;2023-03-04T10:16:05;101475.38;;;26.64;22.69
61528;BME280;47395;42.032;-8.634;2023-03-04T10:18:21;101473.88;;;27.71;21.61
61528;BME280;47395;42.032;-8.634;2023-03-04T10:20:26;101469.63;;;27.44;22.46
61528;BME280;47395;42.032;-8.634;2023-03-04T10:22:45;101466.94;;;25.98;23.37
61528;BME280;47395;42.032;-8.634;2023-03-04T10:24:46;101465.78;;;26.70;22.36
61528;BME280;47395;42.032;-8.634;2023-03-04T10:26:51;101471.75;;;26.39;22.79
61528;BME280;47395;42.032;-8.634;2023-03-04T10:28:53;101464.44;;;26.74;22.26
61528;BME280;47395;42.032;-8.634;2023-03-04T10:33:41;101468.72;;;28.26;22.29
61528;BME280;47395;42.032;-8.634;2023-03-04T10:35:45;101460.56;;;29.45;21.04
61528;BME280;47395;42.032;-8.634;2023-03-04T10:37:50;101468.38;;;30.17;19.55
61528;BME280;47395;42.032;-8.634;2023-03-04T10:39:52;101465.13;;;31.32;18.79
61528;BME280;47395;42.032;-8.634;2023-03-04T10:44:26;101467.81;;;31.54;18.42
61528;BME280;47395;42.032;-8.634;2023-03-04T10:46:27;101471.88;;;32.85;16.75
61528;BME280;47395;42.032;-8.634;2023-03-04T10:48:30;101462.81;;;32.15;17.33
61528;BME280;47395;42.032;-8.634;2023-03-04T10:50:31;101463.72;;;32.91;16.83